Pacific Challenger — WDE251 — position and weather

sailwx.info

Track history (hours):
 
Tides and Currents Weather Stations Pressure Air Temp Water Temp Dewpoint Dewpoint Depression Visibility Wind Speed Wind Dir Waves Ship Positions

Pacific Challenger

Last reported at 2018-Jun-11 09:04 UTC. Time now 2018-Jun-21 08:29 UTC.
Position N 46°39' W 125°08'.
Warning: this ship's position is 9 days out of date.

Length 35 m; draft 3.2 m.

Type: Fishing. MMSI: 367326360.

Date/timePositionNaut miles runAvg speedWind from/ knotsBaromVisibWave heightAir tempDewpointWater temp
2018-Jun-11 09:04N 46°39' W 125°08'110.0
2018-Jun-11 09:00N 46°39' W 125°07'610.4
2018-Jun-11 08:28N 46°36' W 125°01'510.7
2018-Jun-11 08:00N 46°34' W 124°54'510.5
2018-Jun-11 07:30N 46°31' W 124°48'610.7
2018-Jun-11 06:59N 46°28' W 124°41'510.8
2018-Jun-11 06:30N 46°25' W 124°34'611.0
2018-Jun-11 06:00N 46°22' W 124°28'5 7.8
2018-Jun-11 05:23N 46°20' W 124°22'1 3.3
2018-Jun-11 05:00N 46°19' W 124°20'7 9.9
2018-Jun-11 04:17N 46°15' W 124°12'310.6
2018-Jun-11 04:01N 46°15' W 124°07'4 8.6
2018-Jun-11 03:30N 46°15' W 124°01'5 9.1
2018-Jun-11 03:01N 46°12' W 123°56'3 6.6
2018-Jun-11 02:30N 46°11' W 123°52'0 0.0
2018-Jun-11 02:00N 46°11' W 123°52'0 0.0
2018-Jun-11 01:30N 46°11' W 123°52'0 0.0
2018-Jun-11 00:55N 46°11' W 123°52'0 0.0
2018-Jun-11 00:20N 46°11' W 123°52'0 0.0
2018-Jun-11 00:00N 46°11' W 123°52'0 0.0
2018-Jun-10 23:31N 46°11' W 123°52'0 0.0
2018-Jun-10 23:00N 46°11' W 123°52'0 0.0
2018-Jun-10 22:30N 46°11' W 123°52'0 0.0
2018-Jun-10 22:00N 46°11' W 123°52'0 0.0
2018-Jun-10 21:24N 46°11' W 123°52'0 0.0
2018-Jun-10 21:00N 46°11' W 123°52'0 0.0
2018-Jun-10 20:31N 46°11' W 123°52'0 0.0
2018-Jun-10 20:00N 46°11' W 123°52'0 0.0
2018-Jun-10 19:30N 46°11' W 123°52'0 0.0
2018-Jun-10 19:00N 46°11' W 123°52'0 0.0
2018-Jun-10 18:30N 46°11' W 123°52'0 0.0
2018-Jun-10 18:00N 46°11' W 123°52'0 0.0
2018-Jun-10 17:30N 46°11' W 123°52'0 0.0
2018-Jun-10 16:57N 46°11' W 123°52'0 0.0
2018-Jun-10 16:30N 46°11' W 123°52'0 0.0
2018-Jun-10 15:40N 46°11' W 123°52'0 0.0
2018-Jun-10 15:31N 46°11' W 123°52'0 0.0
2018-Jun-10 15:00N 46°11' W 123°52'0 0.0
2018-Jun-10 14:01N 46°11' W 123°52'0 0.0
2018-Jun-10 13:31N 46°11' W 123°52'0 0.0
2018-Jun-10 13:00N 46°11' W 123°52'0 0.0
2018-Jun-10 12:30N 46°11' W 123°52'0 0.0
2018-Jun-10 12:00N 46°11' W 123°52'0 0.0
2018-Jun-10 11:31N 46°11' W 123°52'0 0.0
2018-Jun-10 11:01N 46°11' W 123°52'0 0.0
2018-Jun-10 10:30N 46°11' W 123°52'0 0.0
2018-Jun-10 10:00N 46°11' W 123°52'0 0.0
2018-Jun-10 09:29N 46°11' W 123°52'0 0.0
2018-Jun-10 09:01N 46°11' W 123°52'0 0.0
2018-Jun-10 08:31N 46°11' W 123°52'0 0.0
2018-Jun-10 08:01N 46°11' W 123°52'0 0.0
2018-Jun-10 07:16N 46°11' W 123°52'0 0.0
2018-Jun-10 06:59N 46°11' W 123°52'0 0.0
2018-Jun-10 06:30N 46°11' W 123°52'0 0.0
2018-Jun-10 06:00N 46°11' W 123°52'0 0.0
2018-Jun-10 05:31N 46°11' W 123°52'0 0.0
2018-Jun-10 05:00N 46°11' W 123°52'0 0.0
2018-Jun-10 04:30N 46°11' W 123°52'0 0.0
2018-Jun-10 04:00N 46°11' W 123°52'0 0.0
2018-Jun-10 03:11N 46°11' W 123°52'0 0.0
2018-Jun-10 03:00N 46°11' W 123°52'0 0.0
2018-Jun-10 02:15N 46°11' W 123°52'0 0.0
2018-Jun-10 02:00N 46°11' W 123°52'0 0.0
2018-Jun-10 01:31N 46°11' W 123°52'0 0.0
2018-Jun-10 00:27N 46°11' W 123°52'0 0.0
2018-Jun-10 00:00N 46°11' W 123°52'0 0.0
2018-Jun-09 23:30N 46°11' W 123°52'0 0.0
2018-Jun-09 23:01N 46°11' W 123°52'0 0.0
2018-Jun-09 22:30N 46°11' W 123°52'0 0.0
2018-Jun-09 22:00N 46°11' W 123°52'0 0.0
2018-Jun-09 21:31N 46°11' W 123°52'0 0.0
2018-Jun-09 21:00N 46°11' W 123°52'0 0.0
2018-Jun-09 18:47N 46°11' W 123°52'0 0.0
2018-Jun-09 18:30N 46°11' W 123°52'0 0.0
2018-Jun-09 18:00N 46°11' W 123°52'1 1.9
2018-Jun-09 17:30N 46°12' W 123°50'0 0.0
2018-Jun-09 17:00N 46°12' W 123°50'0 0.0
2018-Jun-09 16:30N 46°12' W 123°50'0 0.0
2018-Jun-09 16:00N 46°12' W 123°50'0 0.0
2018-Jun-09 15:00N 46°12' W 123°50'0 0.0
2018-Jun-09 14:30N 46°12' W 123°50'0 0.0
2018-Jun-09 13:47N 46°12' W 123°50'0 0.0
2018-Jun-09 13:29N 46°12' W 123°50'0 0.0
2018-Jun-09 13:00N 46°12' W 123°50'0 0.0
2018-Jun-09 12:31N 46°12' W 123°50'0 0.0
2018-Jun-09 12:00N 46°12' W 123°50'0 0.0
2018-Jun-09 11:31N 46°12' W 123°50'0 0.0
2018-Jun-09 11:00N 46°12' W 123°50'0 0.0
2018-Jun-09 10:30N 46°12' W 123°50'0 0.0
2018-Jun-09 10:01N 46°12' W 123°50'0 0.0
2018-Jun-09 09:30N 46°12' W 123°50'0 0.0
2018-Jun-09 09:00N 46°12' W 123°50'0 0.0
2018-Jun-09 08:30N 46°12' W 123°50'0 0.0
2018-Jun-09 08:00N 46°12' W 123°50'0 0.0
2018-Jun-09 07:18N 46°12' W 123°50'0 0.0
2018-Jun-09 06:59N 46°12' W 123°50'0 0.0
2018-Jun-09 06:30N 46°12' W 123°50'0 0.0
2018-Jun-09 06:00N 46°12' W 123°50'0 0.0
2018-Jun-09 05:30N 46°12' W 123°50'0 0.0
2018-Jun-09 05:00N 46°12' W 123°50'0 0.0
2018-Jun-09 04:30N 46°12' W 123°50'0 0.0
2018-Jun-09 03:48N 46°12' W 123°50'0 0.0
2018-Jun-09 03:17N 46°12' W 123°50'0 0.0
2018-Jun-09 02:49N 46°12' W 123°50'0 0.0
2018-Jun-09 02:30N 46°12' W 123°50'0 0.0
2018-Jun-09 01:53N 46°12' W 123°50'0 0.0
2018-Jun-09 01:10N 46°12' W 123°50'0 0.0
2018-Jun-09 01:00N 46°12' W 123°50'0 0.0
2018-Jun-09 00:30N 46°12' W 123°50'0 0.0
2018-Jun-09 00:00N 46°12' W 123°50'3 5.7
2018-Jun-08 23:30N 46°11' W 123°54'4 8.8
2018-Jun-08 23:00N 46°14' W 123°59'4 7.7
2018-Jun-08 22:30N 46°15' W 124°05'4 9.0
2018-Jun-08 22:00N 46°12' W 124°09'510.0
2018-Jun-08 21:30N 46°07' W 124°10'3 6.1
2018-Jun-08 21:00N 46°04' W 124°11'5 9.8
2018-Jun-08 20:30N 45°59' W 124°11'510.5
2018-Jun-08 20:01N 45°54' W 124°12'510.6
2018-Jun-08 19:30N 45°48' W 124°13'510.9
2018-Jun-08 19:00N 45°43' W 124°13'510.7
2018-Jun-08 18:30N 45°37' W 124°14'510.7
2018-Jun-08 18:00N 45°32' W 124°15'610.8
2018-Jun-08 17:30N 45°27' W 124°16'  
2018-Jun-03 08:26N 42°23' W 124°47'  
Track history (hours):
 
Tides and Currents Weather Stations Pressure Air Temp Water Temp Dewpoint Dewpoint Depression Visibility Wind Speed Wind Dir Waves Ship Positions

Pacific Challenger

Last reported at 2018-Jun-11 09:04 UTC. Time now 2018-Jun-21 08:29 UTC.
Position N 46°39' W 125°08'.
Warning: this ship's position is 9 days out of date.

Length 35 m; draft 3.2 m.

Type: Fishing. MMSI: 367326360.

Date/timePositionNaut miles runAvg speedWind from/ knotsBaromVisibWave heightAir tempDewpointWater temp
2018-Jun-11 09:04N 46°39' W 125°08'110.0
2018-Jun-11 09:00N 46°39' W 125°07'610.4
2018-Jun-11 08:28N 46°36' W 125°01'510.7
2018-Jun-11 08:00N 46°34' W 124°54'510.5
2018-Jun-11 07:30N 46°31' W 124°48'610.7
2018-Jun-11 06:59N 46°28' W 124°41'510.8
2018-Jun-11 06:30N 46°25' W 124°34'611.0
2018-Jun-11 06:00N 46°22' W 124°28'5 7.8
2018-Jun-11 05:23N 46°20' W 124°22'1 3.3
2018-Jun-11 05:00N 46°19' W 124°20'7 9.9
2018-Jun-11 04:17N 46°15' W 124°12'310.6
2018-Jun-11 04:01N 46°15' W 124°07'4 8.6
2018-Jun-11 03:30N 46°15' W 124°01'5 9.1
2018-Jun-11 03:01N 46°12' W 123°56'3 6.6
2018-Jun-11 02:30N 46°11' W 123°52'0 0.0
2018-Jun-11 02:00N 46°11' W 123°52'0 0.0
2018-Jun-11 01:30N 46°11' W 123°52'0 0.0
2018-Jun-11 00:55N 46°11' W 123°52'0 0.0
2018-Jun-11 00:20N 46°11' W 123°52'0 0.0
2018-Jun-11 00:00N 46°11' W 123°52'0 0.0
2018-Jun-10 23:31N 46°11' W 123°52'0 0.0
2018-Jun-10 23:00N 46°11' W 123°52'0 0.0
2018-Jun-10 22:30N 46°11' W 123°52'0 0.0
2018-Jun-10 22:00N 46°11' W 123°52'0 0.0
2018-Jun-10 21:24N 46°11' W 123°52'0 0.0
2018-Jun-10 21:00N 46°11' W 123°52'0 0.0
2018-Jun-10 20:31N 46°11' W 123°52'0 0.0
2018-Jun-10 20:00N 46°11' W 123°52'0 0.0
2018-Jun-10 19:30N 46°11' W 123°52'0 0.0
2018-Jun-10 19:00N 46°11' W 123°52'0 0.0
2018-Jun-10 18:30N 46°11' W 123°52'0 0.0
2018-Jun-10 18:00N 46°11' W 123°52'0 0.0
2018-Jun-10 17:30N 46°11' W 123°52'0 0.0
2018-Jun-10 16:57N 46°11' W 123°52'0 0.0
2018-Jun-10 16:30N 46°11' W 123°52'0 0.0
2018-Jun-10 15:40N 46°11' W 123°52'0 0.0
2018-Jun-10 15:31N 46°11' W 123°52'0 0.0
2018-Jun-10 15:00N 46°11' W 123°52'0 0.0
2018-Jun-10 14:01N 46°11' W 123°52'0 0.0
2018-Jun-10 13:31N 46°11' W 123°52'0 0.0
2018-Jun-10 13:00N 46°11' W 123°52'0 0.0
2018-Jun-10 12:30N 46°11' W 123°52'0 0.0
2018-Jun-10 12:00N 46°11' W 123°52'0 0.0
2018-Jun-10 11:31N 46°11' W 123°52'0 0.0
2018-Jun-10 11:01N 46°11' W 123°52'0 0.0
2018-Jun-10 10:30N 46°11' W 123°52'0 0.0
2018-Jun-10 10:00N 46°11' W 123°52'0 0.0
2018-Jun-10 09:29N 46°11' W 123°52'0 0.0
2018-Jun-10 09:01N 46°11' W 123°52'0 0.0
2018-Jun-10 08:31N 46°11' W 123°52'0 0.0
2018-Jun-10 08:01N 46°11' W 123°52'0 0.0
2018-Jun-10 07:16N 46°11' W 123°52'0 0.0
2018-Jun-10 06:59N 46°11' W 123°52'0 0.0
2018-Jun-10 06:30N 46°11' W 123°52'0 0.0
2018-Jun-10 06:00N 46°11' W 123°52'0 0.0
2018-Jun-10 05:31N 46°11' W 123°52'0 0.0
2018-Jun-10 05:00N 46°11' W 123°52'0 0.0
2018-Jun-10 04:30N 46°11' W 123°52'0 0.0
2018-Jun-10 04:00N 46°11' W 123°52'0 0.0
2018-Jun-10 03:11N 46°11' W 123°52'0 0.0
2018-Jun-10 03:00N 46°11' W 123°52'0 0.0
2018-Jun-10 02:15N 46°11' W 123°52'0 0.0
2018-Jun-10 02:00N 46°11' W 123°52'0 0.0
2018-Jun-10 01:31N 46°11' W 123°52'0 0.0
2018-Jun-10 00:27N 46°11' W 123°52'0 0.0
2018-Jun-10 00:00N 46°11' W 123°52'0 0.0
2018-Jun-09 23:30N 46°11' W 123°52'0 0.0
2018-Jun-09 23:01N 46°11' W 123°52'0 0.0
2018-Jun-09 22:30N 46°11' W 123°52'0 0.0
2018-Jun-09 22:00N 46°11' W 123°52'0 0.0
2018-Jun-09 21:31N 46°11' W 123°52'0 0.0
2018-Jun-09 21:00N 46°11' W 123°52'0 0.0
2018-Jun-09 18:47N 46°11' W 123°52'0 0.0
2018-Jun-09 18:30N 46°11' W 123°52'0 0.0
2018-Jun-09 18:00N 46°11' W 123°52'1 1.9
2018-Jun-09 17:30N 46°12' W 123°50'0 0.0
2018-Jun-09 17:00N 46°12' W 123°50'0 0.0
2018-Jun-09 16:30N 46°12' W 123°50'0 0.0
2018-Jun-09 16:00N 46°12' W 123°50'0 0.0
2018-Jun-09 15:00N 46°12' W 123°50'0 0.0
2018-Jun-09 14:30N 46°12' W 123°50'0 0.0
2018-Jun-09 13:47N 46°12' W 123°50'0 0.0
2018-Jun-09 13:29N 46°12' W 123°50'0 0.0
2018-Jun-09 13:00N 46°12' W 123°50'0 0.0
2018-Jun-09 12:31N 46°12' W 123°50'0 0.0
2018-Jun-09 12:00N 46°12' W 123°50'0 0.0
2018-Jun-09 11:31N 46°12' W 123°50'0 0.0
2018-Jun-09 11:00N 46°12' W 123°50'0 0.0
2018-Jun-09 10:30N 46°12' W 123°50'0 0.0
2018-Jun-09 10:01N 46°12' W 123°50'0 0.0
2018-Jun-09 09:30N 46°12' W 123°50'0 0.0
2018-Jun-09 09:00N 46°12' W 123°50'0 0.0
2018-Jun-09 08:30N 46°12' W 123°50'0 0.0
2018-Jun-09 08:00N 46°12' W 123°50'0 0.0
2018-Jun-09 07:18N 46°12' W 123°50'0 0.0
2018-Jun-09 06:59N 46°12' W 123°50'0 0.0
2018-Jun-09 06:30N 46°12' W 123°50'0 0.0
2018-Jun-09 06:00N 46°12' W 123°50'0 0.0
2018-Jun-09 05:30N 46°12' W 123°50'0 0.0
2018-Jun-09 05:00N 46°12' W 123°50'0 0.0
2018-Jun-09 04:30N 46°12' W 123°50'0 0.0
2018-Jun-09 03:48N 46°12' W 123°50'0 0.0
2018-Jun-09 03:17N 46°12' W 123°50'0 0.0
2018-Jun-09 02:49N 46°12' W 123°50'0 0.0
2018-Jun-09 02:30N 46°12' W 123°50'0 0.0
2018-Jun-09 01:53N 46°12' W 123°50'0 0.0
2018-Jun-09 01:10N 46°12' W 123°50'0 0.0
2018-Jun-09 01:00N 46°12' W 123°50'0 0.0
2018-Jun-09 00:30N 46°12' W 123°50'0 0.0
2018-Jun-09 00:00N 46°12' W 123°50'3 5.7
2018-Jun-08 23:30N 46°11' W 123°54'4 8.8
2018-Jun-08 23:00N 46°14' W 123°59'4 7.7
2018-Jun-08 22:30N 46°15' W 124°05'4 9.0
2018-Jun-08 22:00N 46°12' W 124°09'510.0
2018-Jun-08 21:30N 46°07' W 124°10'3 6.1
2018-Jun-08 21:00N 46°04' W 124°11'5 9.8
2018-Jun-08 20:30N 45°59' W 124°11'510.5
2018-Jun-08 20:01N 45°54' W 124°12'510.6
2018-Jun-08 19:30N 45°48' W 124°13'510.9
2018-Jun-08 19:00N 45°43' W 124°13'510.7
2018-Jun-08 18:30N 45°37' W 124°14'510.7
2018-Jun-08 18:00N 45°32' W 124°15'610.8
2018-Jun-08 17:30N 45°27' W 124°16'  
2018-Jun-03 08:26N 42°23' W 124°47'  

Dump ship's entire track history